Time;durP1;ratioP1;P1;durP2;ratioP2;P2;SDS_P1;SDS_P2;PMS_P1;PMS_P2;Temp;Humidity;BMP_temperature;BMP_pressure;BME280_temperature;BME280_humidity;BME280_pressure;Samples;Min_cycle;Max_cycle;Signal;HPM_P1;HPM_P2
2023/08/16 00:01:28;;;;;;;7.70;6.90;;;;;;;;;;110076;269;42666;-42
2023/08/16 00:04:02;;;;;;;7.90;6.80;;;;;;;;;;110074;269;42006;-42
2023/08/16 00:06:42;;;;;;;8.30;7.20;;;;;;;;;;110114;269;38673;-42
2023/08/16 00:09:16;;;;;;;8.50;6.50;;;;;;;;;;110063;269;39599;-42
2023/08/16 00:11:50;;;;;;;8.80;7.20;;;;;;;;;;110138;269;42701;-43
2023/08/16 00:14:23;;;;;;;7.60;6.70;;;;;;;;;;110102;269;42040;-41
2023/08/16 00:16:58;;;;;;;8.10;7.10;;;;;;;;;;110120;269;39829;-41
2023/08/16 00:19:32;;;;;;;7.80;7.00;;;;;;;;;;110035;269;47489;-42
2023/08/16 00:22:07;;;;;;;7.80;6.80;;;;;;;;;;110092;269;42759;-44
2023/08/16 00:24:40;;;;;;;8.10;7.10;;;;;;;;;;110091;269;41808;-42
2023/08/16 00:27:15;;;;;;;7.90;7.10;;;;;;;;;;110093;269;38686;-42
2023/08/16 00:29:50;;;;;;;7.70;6.60;;;;;;;;;;110057;269;45226;-42
2023/08/16 00:32:26;;;;;;;7.50;6.70;;;;;;;;;;110094;269;42779;-42
2023/08/16 00:35:04;;;;;;;8.80;6.90;;;;;;;;;;110082;269;42407;-42
2023/08/16 00:37:38;;;;;;;8.40;6.80;;;;;;;;;;110079;269;39123;-41
2023/08/16 00:40:18;;;;;;;8.00;6.80;;;;;;;;;;110046;269;46758;-41
2023/08/16 00:42:51;;;;;;;8.20;7.00;;;;;;;;;;110102;269;43160;-41
2023/08/16 00:45:25;;;;;;;7.80;7.00;;;;;;;;;;110065;269;42306;-41
2023/08/16 00:48:00;;;;;;;7.70;6.90;;;;;;;;;;110089;269;38695;-42
2023/08/16 00:50:34;;;;;;;8.60;7.10;;;;;;;;;;110090;269;45653;-40
2023/08/16 00:53:12;;;;;;;8.10;7.00;;;;;;;;;;110102;269;43236;-42
2023/08/16 00:55:46;;;;;;;7.60;6.70;;;;;;;;;;110077;269;42829;-43
2023/08/16 00:58:21;;;;;;;7.80;7.00;;;;;;;;;;110070;269;38846;-40
2023/08/16 01:00:55;;;;;;;7.60;6.80;;;;;;;;;;110055;269;46880;-41
2023/08/16 01:03:29;;;;;;;7.20;6.50;;;;;;;;;;110076;269;44052;-41
2023/08/16 01:06:05;;;;;;;8.50;7.00;;;;;;;;;;110075;269;42069;-40
2023/08/16 01:08:40;;;;;;;7.50;6.80;;;;;;;;;;110090;269;40013;-42
2023/08/16 01:11:27;;;;;;;7.90;6.60;;;;;;;;;;110140;269;45844;-42
2023/08/16 01:14:06;;;;;;;7.60;6.70;;;;;;;;;;110074;269;42832;-41
2023/08/16 01:16:45;;;;;;;8.30;6.90;;;;;;;;;;110123;269;41975;-41
2023/08/16 01:19:30;;;;;;;7.60;6.70;;;;;;;;;;110062;269;39932;-41
2023/08/16 01:22:17;;;;;;;8.00;7.00;;;;;;;;;;110115;269;39573;-41
2023/08/16 01:25:10;;;;;;;8.30;7.10;;;;;;;;;;110127;269;42725;-44
2023/08/16 01:27:45;;;;;;;7.80;6.80;;;;;;;;;;110150;269;43331;-42
2023/08/16 01:30:20;;;;;;;7.90;7.00;;;;;;;;;;110095;269;38686;-43
2023/08/16 01:32:53;;;;;;;7.80;7.00;;;;;;;;;;110129;269;40743;-44
2023/08/16 01:35:27;;;;;;;8.40;6.90;;;;;;;;;;110125;269;42654;-42
2023/08/16 01:38:00;;;;;;;7.50;6.80;;;;;;;;;;110112;269;42177;-42
2023/08/16 01:40:41;;;;;;;7.70;6.90;;;;;;;;;;110062;269;38699;-42
2023/08/16 01:43:22;;;;;;;7.50;6.80;;;;;;;;;;110125;269;39737;-42
2023/08/16 01:45:57;;;;;;;8.30;7.30;;;;;;;;;;110122;269;42842;-42
2023/08/16 01:48:33;;;;;;;8.00;7.20;;;;;;;;;;110009;269;175456;-43
2023/08/16 01:51:07;;;;;;;7.90;6.90;;;;;;;;;;110042;269;39764;-41
2023/08/16 01:53:42;;;;;;;7.70;6.90;;;;;;;;;;110143;269;39793;-41
2023/08/16 01:56:15;;;;;;;8.40;7.00;;;;;;;;;;110102;269;44347;-43
2023/08/16 01:58:49;;;;;;;8.50;7.00;;;;;;;;;;110139;269;42020;-42
2023/08/16 02:01:23;;;;;;;8.00;7.20;;;;;;;;;;110079;267;38684;-42
2023/08/16 02:03:56;;;;;;;9.70;7.70;;;;;;;;;;109972;269;175444;-41
2023/08/16 02:06:30;;;;;;;8.80;7.30;;;;;;;;;;110079;269;43373;-41
2023/08/16 02:09:03;;;;;;;8.50;7.60;;;;;;;;;;110106;269;42194;-42
2023/08/16 02:11:37;;;;;;;8.60;7.60;;;;;;;;;;110088;270;38713;-42
2023/08/16 02:14:12;;;;;;;8.50;7.60;;;;;;;;;;110087;270;39758;-43
2023/08/16 02:16:46;;;;;;;8.10;7.30;;;;;;;;;;110137;270;44113;-43
2023/08/16 02:19:22;;;;;;;8.60;7.70;;;;;;;;;;110118;270;41729;-42
2023/08/16 02:21:55;;;;;;;9.00;7.60;;;;;;;;;;110067;270;38703;-43
2023/08/16 02:24:29;;;;;;;8.70;7.80;;;;;;;;;;110106;269;39336;-41
2023/08/16 02:27:03;;;;;;;9.70;7.70;;;;;;;;;;110091;270;42470;-41
2023/08/16 02:29:37;;;;;;;8.60;7.60;;;;;;;;;;110106;270;42186;-41
2023/08/16 02:32:11;;;;;;;8.80;8.00;;;;;;;;;;110069;269;38658;-43
2023/08/16 02:34:44;;;;;;;8.50;7.60;;;;;;;;;;109991;270;175473;-41
2023/08/16 02:37:19;;;;;;;9.70;7.90;;;;;;;;;;110059;269;42909;-42
2023/08/16 02:39:54;;;;;;;9.40;7.90;;;;;;;;;;110105;269;42023;-41
2023/08/16 02:42:28;;;;;;;9.40;8.20;;;;;;;;;;110023;269;38840;-41
2023/08/16 02:45:02;;;;;;;9.20;7.70;;;;;;;;;;110128;269;39571;-41
2023/08/16 02:47:35;;;;;;;8.60;7.70;;;;;;;;;;110139;269;42402;-41
2023/08/16 02:50:13;;;;;;;9.00;8.10;;;;;;;;;;110095;269;41961;-41
2023/08/16 02:52:46;;;;;;;9.50;7.80;;;;;;;;;;110056;270;38725;-41
2023/08/16 02:55:19;;;;;;;9.80;8.50;;;;;;;;;;110109;270;40800;-41
2023/08/16 02:57:54;;;;;;;9.70;8.40;;;;;;;;;;110087;270;42463;-42
2023/08/16 03:00:29;;;;;;;8.90;8.00;;;;;;;;;;110125;269;42362;-41
2023/08/16 03:03:03;;;;;;;9.30;8.30;;;;;;;;;;110041;270;38612;-42
2023/08/16 03:05:39;;;;;;;8.90;7.90;;;;;;;;;;110078;270;40916;-42
2023/08/16 03:08:13;;;;;;;9.50;8.20;;;;;;;;;;110119;270;42741;-42
2023/08/16 03:10:47;;;;;;;8.80;7.90;;;;;;;;;;110103;269;42544;-42
2023/08/16 03:13:20;;;;;;;9.00;8.00;;;;;;;;;;110105;269;38690;-44
2023/08/16 03:15:54;;;;;;;9.00;8.00;;;;;;;;;;110115;269;39624;-43
2023/08/16 03:18:27;;;;;;;10.00;8.10;;;;;;;;;;110118;269;42910;-43
2023/08/16 03:21:01;;;;;;;8.90;8.00;;;;;;;;;;110047;269;41815;-43
2023/08/16 03:23:36;;;;;;;9.00;7.50;;;;;;;;;;110039;269;39068;-46
2023/08/16 03:26:10;;;;;;;10.60;7.90;;;;;;;;;;110054;269;40586;-46
2023/08/16 03:28:45;;;;;;;8.80;7.90;;;;;;;;;;110048;269;42688;-46
2023/08/16 03:31:22;;;;;;;9.00;7.80;;;;;;;;;;110036;269;41708;-44
2023/08/16 03:33:58;;;;;;;8.50;7.70;;;;;;;;;;109856;269;175539;-45
2023/08/16 03:36:31;;;;;;;8.70;7.30;;;;;;;;;;110064;269;41118;-45
2023/08/16 03:39:06;;;;;;;9.20;7.60;;;;;;;;;;109949;269;43109;-46
2023/08/16 03:41:41;;;;;;;8.80;7.60;;;;;;;;;;109979;269;43313;-45
2023/08/16 03:44:14;;;;;;;8.40;7.50;;;;;;;;;;109941;269;44483;-45
2023/08/16 03:46:50;;;;;;;8.10;7.20;;;;;;;;;;110040;269;39629;-45
2023/08/16 03:49:29;;;;;;;9.10;8.00;;;;;;;;;;110024;269;42472;-45
2023/08/16 03:52:03;;;;;;;9.00;7.60;;;;;;;;;;110065;269;43151;-45
2023/08/16 03:54:36;;;;;;;10.00;7.20;;;;;;;;;;110058;269;38757;-46
2023/08/16 03:57:11;;;;;;;8.70;7.80;;;;;;;;;;110073;269;40829;-45
2023/08/16 03:59:44;;;;;;;8.20;7.50;;;;;;;;;;110111;269;43007;-44
2023/08/16 04:02:17;;;;;;;9.00;7.80;;;;;;;;;;110037;269;42154;-46
2023/08/16 04:04:56;;;;;;;8.60;7.70;;;;;;;;;;110064;269;45383;-44
2023/08/16 04:07:29;;;;;;;9.40;7.90;;;;;;;;;;110037;269;39540;-46
2023/08/16 04:10:03;;;;;;;8.90;8.00;;;;;;;;;;110030;269;42898;-44
2023/08/16 04:12:36;;;;;;;8.70;7.80;;;;;;;;;;110023;269;42216;-46
2023/08/16 04:15:12;;;;;;;9.20;7.70;;;;;;;;;;110060;269;46106;-46
2023/08/16 04:17:48;;;;;;;9.30;7.80;;;;;;;;;;110108;269;39708;-46
2023/08/16 04:20:22;;;;;;;8.90;7.60;;;;;;;;;;110092;269;44034;-46
2023/08/16 04:22:56;;;;;;;9.90;7.50;;;;;;;;;;110087;269;42032;-46
2023/08/16 04:25:32;;;;;;;8.70;7.80;;;;;;;;;;110054;269;46339;-44
2023/08/16 04:28:06;;;;;;;8.90;8.00;;;;;;;;;;110087;269;39528;-46
2023/08/16 04:30:39;;;;;;;10.70;8.10;;;;;;;;;;110111;269;41726;-46
2023/08/16 04:33:13;;;;;;;9.10;7.70;;;;;;;;;;110039;269;42045;-45
2023/08/16 04:35:47;;;;;;;9.60;8.30;;;;;;;;;;110108;269;45137;-46
2023/08/16 04:38:25;;;;;;;10.30;8.70;;;;;;;;;;110082;269;39351;-44
2023/08/16 04:40:58;;;;;;;10.00;8.50;;;;;;;;;;110073;269;42809;-43
2023/08/16 04:43:32;;;;;;;10.70;8.30;;;;;;;;;;110075;269;42116;-46
2023/08/16 04:46:06;;;;;;;9.80;8.30;;;;;;;;;;110059;269;46027;-44
2023/08/16 04:48:40;;;;;;;10.00;8.40;;;;;;;;;;110107;269;41761;-44
2023/08/16 04:51:13;;;;;;;10.20;8.30;;;;;;;;;;110105;269;42891;-45
2023/08/16 04:53:46;;;;;;;10.60;7.90;;;;;;;;;;110072;269;42062;-46
2023/08/16 04:56:20;;;;;;;9.20;8.30;;;;;;;;;;110146;269;45084;-46
2023/08/16 04:58:54;;;;;;;9.90;8.70;;;;;;;;;;110072;269;39296;-45
2023/08/16 05:01:27;;;;;;;10.50;8.30;;;;;;;;;;110102;269;42678;-44
2023/08/16 05:04:03;;;;;;;12.10;8.50;;;;;;;;;;110071;269;42069;-44
2023/08/16 05:06:37;;;;;;;10.60;8.50;;;;;;;;;;110112;269;45991;-46
2023/08/16 05:09:11;;;;;;;10.60;8.80;;;;;;;;;;109979;269;175495;-44
2023/08/16 05:11:45;;;;;;;11.10;9.20;;;;;;;;;;110079;269;42839;-43
2023/08/16 05:14:19;;;;;;;10.20;8.70;;;;;;;;;;110069;269;42353;-43
2023/08/16 05:16:52;;;;;;;10.30;8.50;;;;;;;;;;110128;269;46006;-45
2023/08/16 05:19:26;;;;;;;10.10;9.10;;;;;;;;;;110113;269;39597;-43
2023/08/16 05:21:59;;;;;;;12.30;9.80;;;;;;;;;;110093;269;43987;-45
2023/08/16 05:24:34;;;;;;;12.20;9.80;;;;;;;;;;110069;269;42364;-43
2023/08/16 05:27:12;;;;;;;11.90;9.90;;;;;;;;;;110119;269;44696;-45
2023/08/16 05:29:47;;;;;;;11.10;9.20;;;;;;;;;;110080;269;39579;-45
2023/08/16 05:32:20;;;;;;;10.50;9.40;;;;;;;;;;110136;269;43041;-46
2023/08/16 05:34:56;;;;;;;11.10;9.20;;;;;;;;;;110046;269;42135;-44
2023/08/16 05:37:32;;;;;;;11.40;9.40;;;;;;;;;;110103;269;44323;-41
2023/08/16 05:40:07;;;;;;;10.70;8.60;;;;;;;;;;110127;269;39645;-41
2023/08/16 05:42:43;;;;;;;11.00;8.50;;;;;;;;;;110097;269;42748;-44
2023/08/16 05:45:16;;;;;;;10.40;8.70;;;;;;;;;;110058;266;42160;-43
2023/08/16 05:47:51;;;;;;;10.80;8.80;;;;;;;;;;110098;269;46000;-42
2023/08/16 05:50:25;;;;;;;9.80;8.80;;;;;;;;;;110126;269;40962;-41
2023/08/16 05:53:00;;;;;;;9.70;8.70;;;;;;;;;;110102;269;43951;-42
2023/08/16 05:55:34;;;;;;;10.70;8.70;;;;;;;;;;110062;269;42029;-42
2023/08/16 05:58:08;;;;;;;10.50;8.40;;;;;;;;;;110105;269;44876;-44
2023/08/16 06:00:41;;;;;;;10.40;8.80;;;;;;;;;;110127;269;39464;-43
2023/08/16 06:03:15;;;;;;;11.40;8.40;;;;;;;;;;110109;269;42714;-42
2023/08/16 06:05:50;;;;;;;9.30;8.20;;;;;;;;;;110072;269;42052;-43
2023/08/16 06:08:26;;;;;;;12.20;9.00;;;;;;;;;;110105;269;46202;-42
2023/08/16 06:11:05;;;;;;;10.30;8.70;;;;;;;;;;110069;269;40907;-42
2023/08/16 06:13:42;;;;;;;10.70;8.40;;;;;;;;;;110112;269;44085;-43
2023/08/16 06:16:25;;;;;;;9.40;8.30;;;;;;;;;;110029;269;41858;-42
2023/08/16 06:18:59;;;;;;;9.30;7.70;;;;;;;;;;110079;269;38659;-40
2023/08/16 06:21:37;;;;;;;9.60;8.10;;;;;;;;;;110116;269;39679;-40
2023/08/16 06:24:14;;;;;;;9.70;8.40;;;;;;;;;;110086;269;42943;-40
2023/08/16 06:26:48;;;;;;;10.10;8.40;;;;;;;;;;110007;269;43491;-41
2023/08/16 06:29:24;;;;;;;9.50;8.50;;;;;;;;;;110102;269;38828;-41
2023/08/16 06:32:04;;;;;;;9.10;8.10;;;;;;;;;;110068;269;39894;-40
2023/08/16 06:34:40;;;;;;;10.20;8.00;;;;;;;;;;110103;269;42811;-41
2023/08/16 06:37:14;;;;;;;10.30;8.40;;;;;;;;;;110066;269;42051;-41
2023/08/16 06:39:53;;;;;;;9.20;8.30;;;;;;;;;;109653;269;354460;-40
2023/08/16 06:42:30;;;;;;;9.20;8.20;;;;;;;;;;110062;269;40939;-41
2023/08/16 06:45:04;;;;;;;10.30;8.60;;;;;;;;;;110069;269;44159;-41
2023/08/16 06:47:42;;;;;;;9.00;8.10;;;;;;;;;;110030;269;42036;-40
2023/08/16 06:50:19;;;;;;;9.70;8.60;;;;;;;;;;109970;269;175031;-43
2023/08/16 06:52:55;;;;;;;10.20;8.00;;;;;;;;;;110073;269;40701;-41
2023/08/16 06:55:34;;;;;;;9.90;8.10;;;;;;;;;;110041;269;44295;-40
2023/08/16 06:58:12;;;;;;;9.80;8.70;;;;;;;;;;110030;269;43332;-40
2023/08/16 07:00:53;;;;;;;9.80;8.70;;;;;;;;;;110059;269;38637;-40
2023/08/16 07:03:29;;;;;;;10.80;8.70;;;;;;;;;;110095;269;39646;-40
2023/08/16 07:06:08;;;;;;;9.40;7.80;;;;;;;;;;110067;269;44070;-40
2023/08/16 07:08:47;;;;;;;9.20;8.00;;;;;;;;;;110017;269;42216;-41
2023/08/16 07:11:25;;;;;;;9.50;8.40;;;;;;;;;;110066;269;39962;-40
2023/08/16 07:14:04;;;;;;;9.30;8.30;;;;;;;;;;110066;269;39916;-41
2023/08/16 07:16:39;;;;;;;9.60;8.60;;;;;;;;;;110070;269;42916;-40
2023/08/16 07:19:13;;;;;;;9.50;8.50;;;;;;;;;;109947;262;42254;-46
2023/08/16 07:21:48;;;;;;;10.10;8.30;;;;;;;;;;110010;270;38421;-39
2023/08/16 07:24:24;;;;;;;9.20;8.20;;;;;;;;;;109977;262;40847;-39
2023/08/16 07:26:59;;;;;;;9.60;8.40;;;;;;;;;;109986;262;44111;-40
2023/08/16 07:29:32;;;;;;;9.00;8.10;;;;;;;;;;109960;270;42015;-38
2023/08/16 07:32:06;;;;;;;8.90;8.00;;;;;;;;;;109861;270;192361;-43
2023/08/16 07:34:44;;;;;;;9.40;8.40;;;;;;;;;;109978;270;39583;-46
2023/08/16 07:37:19;;;;;;;10.00;8.30;;;;;;;;;;109983;270;42775;-40
2023/08/16 07:39:52;;;;;;;10.50;8.70;;;;;;;;;;110037;270;42999;-39
2023/08/16 07:42:26;;;;;;;8.90;8.00;;;;;;;;;;110012;262;39823;-38
2023/08/16 07:45:05;;;;;;;10.00;8.70;;;;;;;;;;109994;266;39829;-37
2023/08/16 07:47:41;;;;;;;9.30;8.40;;;;;;;;;;110014;269;42438;-36
2023/08/16 07:50:21;;;;;;;9.10;8.20;;;;;;;;;;109975;269;48030;-37
2023/08/16 07:52:56;;;;;;;12.20;8.50;;;;;;;;;;110024;269;38621;-45
2023/08/16 07:55:34;;;;;;;9.50;7.80;;;;;;;;;;109376;261;891718;-46
2023/08/16 07:58:15;;;;;;;8.90;7.90;;;;;;;;;;109994;270;44166;-38
2023/08/16 08:00:54;;;;;;;10.10;8.60;;;;;;;;;;110004;270;51041;-39
2023/08/16 08:03:30;;;;;;;9.10;8.10;;;;;;;;;;110077;270;38434;-37
2023/08/16 08:06:09;;;;;;;9.60;8.50;;;;;;;;;;109991;266;39587;-37
2023/08/16 08:08:42;;;;;;;9.20;8.20;;;;;;;;;;109973;270;42773;-37
2023/08/16 08:11:16;;;;;;;9.40;8.10;;;;;;;;;;110009;266;42045;-38
2023/08/16 08:13:55;;;;;;;9.10;8.20;;;;;;;;;;110035;270;38722;-38
2023/08/16 08:16:29;;;;;;;9.60;8.50;;;;;;;;;;110050;270;39312;-38
2023/08/16 08:19:02;;;;;;;8.50;7.60;;;;;;;;;;109968;270;43934;-37
2023/08/16 08:21:37;;;;;;;11.30;8.40;;;;;;;;;;109993;266;41947;-44
2023/08/16 08:24:12;;;;;;;9.50;8.10;;;;;;;;;;109950;270;174827;-42
2023/08/16 08:26:48;;;;;;;8.90;7.90;;;;;;;;;;110084;269;39641;-43
2023/08/16 08:29:25;;;;;;;9.10;8.00;;;;;;;;;;110058;269;42781;-42
2023/08/16 08:32:02;;;;;;;9.70;7.70;;;;;;;;;;110109;269;42141;-45
2023/08/16 08:34:38;;;;;;;9.10;7.70;;;;;;;;;;110092;269;39976;-43
2023/08/16 08:37:12;;;;;;;8.30;7.50;;;;;;;;;;110095;269;39540;-41
2023/08/16 08:39:46;;;;;;;9.00;8.10;;;;;;;;;;110042;269;42877;-43
2023/08/16 08:42:21;;;;;;;8.70;7.30;;;;;;;;;;110127;269;41992;-41
2023/08/16 08:44:58;;;;;;;8.20;7.30;;;;;;;;;;110122;266;38676;-42
2023/08/16 08:47:32;;;;;;;8.60;7.60;;;;;;;;;;110055;269;39688;-42
2023/08/16 08:50:13;;;;;;;8.50;7.70;;;;;;;;;;110032;269;42846;-42
2023/08/16 08:52:51;;;;;;;8.90;7.50;;;;;;;;;;110087;269;42044;-41
2023/08/16 08:55:27;;;;;;;8.30;7.30;;;;;;;;;;110028;269;38718;-41
2023/08/16 08:58:05;;;;;;;8.20;7.40;;;;;;;;;;110096;269;39613;-40
2023/08/16 09:00:42;;;;;;;8.10;7.30;;;;;;;;;;110050;269;42756;-37
2023/08/16 09:03:19;;;;;;;8.20;7.50;;;;;;;;;;110061;269;42016;-39
2023/08/16 09:05:56;;;;;;;9.30;7.10;;;;;;;;;;110037;269;38754;-39
2023/08/16 09:08:33;;;;;;;8.40;7.60;;;;;;;;;;110059;269;40748;-43
2023/08/16 09:11:08;;;;;;;8.10;7.20;;;;;;;;;;109969;269;42767;-41
2023/08/16 09:13:52;;;;;;;7.90;7.10;;;;;;;;;;110045;261;42044;-46
2023/08/16 09:16:31;;;;;;;9.10;7.50;;;;;;;;;;109960;269;38819;-41
2023/08/16 09:19:16;;;;;;;8.50;7.20;;;;;;;;;;110017;269;39750;-44
2023/08/16 09:21:53;;;;;;;8.30;7.10;;;;;;;;;;109867;269;42878;-46
2023/08/16 09:24:32;;;;;;;7.50;6.80;;;;;;;;;;110036;269;42495;-47
2023/08/16 09:27:10;;;;;;;7.90;7.00;;;;;;;;;;110008;269;38464;-49
2023/08/16 09:29:49;;;;;;;8.00;7.20;;;;;;;;;;109934;270;40732;-47
2023/08/16 09:32:23;;;;;;;8.30;7.00;;;;;;;;;;109888;270;42677;-46
2023/08/16 09:35:02;;;;;;;8.10;7.30;;;;;;;;;;109697;270;43252;-48
2023/08/16 09:37:39;;;;;;;8.20;6.90;;;;;;;;;;109953;261;38692;-46
2023/08/16 09:40:17;;;;;;;7.80;7.00;;;;;;;;;;109899;269;39284;-45
2023/08/16 09:42:53;;;;;;;7.60;6.60;;;;;;;;;;110032;269;49390;-43
2023/08/16 09:45:36;;;;;;;7.40;6.60;;;;;;;;;;110061;269;42152;-44
2023/08/16 09:48:12;;;;;;;7.60;6.60;;;;;;;;;;110106;261;38891;-41
2023/08/16 09:50:46;;;;;;;8.80;7.30;;;;;;;;;;110083;269;39717;-41
2023/08/16 09:53:22;;;;;;;8.60;6.70;;;;;;;;;;110102;269;42762;-41
2023/08/16 09:56:11;;;;;;;8.40;7.10;;;;;;;;;;110018;266;42000;-42
2023/08/16 09:58:51;;;;;;;7.40;6.60;;;;;;;;;;110096;269;38725;-41
2023/08/16 10:01:25;;;;;;;8.10;7.30;;;;;;;;;;110065;266;39508;-41
2023/08/16 10:04:03;;;;;;;6.80;6.10;;;;;;;;;;110049;269;44092;-41
2023/08/16 10:06:53;;;;;;;7.70;6.70;;;;;;;;;;110100;262;42059;-41
2023/08/16 10:09:34;;;;;;;7.60;6.50;;;;;;;;;;110114;269;38729;-43
2023/08/16 10:12:11;;;;;;;7.50;6.60;;;;;;;;;;110030;269;39352;-41
2023/08/16 10:14:46;;;;;;;7.00;6.30;;;;;;;;;;110109;269;42902;-41
2023/08/16 10:17:22;;;;;;;7.10;6.30;;;;;;;;;;109446;262;891307;-41
2023/08/16 10:20:05;;;;;;;6.90;6.20;;;;;;;;;;110172;269;38659;-41
2023/08/16 10:22:44;;;;;;;7.20;6.30;;;;;;;;;;110153;269;39595;-46
2023/08/16 10:25:23;;;;;;;7.10;6.20;;;;;;;;;;110159;269;42788;-42
2023/08/16 10:28:03;;;;;;;6.70;6.00;;;;;;;;;;110168;265;41930;-43
2023/08/16 10:30:39;;;;;;;6.70;6.00;;;;;;;;;;110253;265;38773;-41
2023/08/16 10:33:37;;;;;;;6.70;5.80;;;;;;;;;;110125;267;39654;-41
2023/08/16 10:36:17;;;;;;;7.00;5.80;;;;;;;;;;110212;269;42706;-41
2023/08/16 10:39:00;;;;;;;6.60;5.90;;;;;;;;;;110189;265;42001;-39
2023/08/16 10:41:43;;;;;;;6.70;5.80;;;;;;;;;;110127;265;38632;-42
2023/08/16 10:44:25;;;;;;;7.20;6.20;;;;;;;;;;110152;269;47686;-41
2023/08/16 10:46:58;;;;;;;7.60;5.80;;;;;;;;;;110204;265;42682;-43
2023/08/16 10:49:44;;;;;;;7.10;6.00;;;;;;;;;;110188;269;41794;-42
2023/08/16 10:52:30;;;;;;;7.90;6.10;;;;;;;;;;110076;269;38747;-41
2023/08/16 10:55:07;;;;;;;6.50;5.80;;;;;;;;;;110139;269;40821;-42
2023/08/16 10:57:54;;;;;;;7.30;6.00;;;;;;;;;;110153;269;42759;-51
2023/08/16 11:00:54;;;;;;;7.20;6.40;;;;;;;;;;110161;269;43668;-42
2023/08/16 11:03:39;;;;;;;6.80;6.10;;;;;;;;;;110068;269;38676;-42
2023/08/16 11:06:15;;;;;;;6.30;5.70;;;;;;;;;;110223;269;39903;-41
2023/08/16 11:08:50;;;;;;;6.30;5.70;;;;;;;;;;110193;261;44022;-37
2023/08/16 11:11:25;;;;;;;7.70;6.10;;;;;;;;;;110102;269;42620;-37
2023/08/16 11:14:03;;;;;;;6.60;5.90;;;;;;;;;;110153;269;38394;-39
2023/08/16 11:16:38;;;;;;;7.20;6.00;;;;;;;;;;110149;269;39620;-39
2023/08/16 11:19:15;;;;;;;6.50;5.70;;;;;;;;;;110139;269;42711;-47
2023/08/16 11:21:54;;;;;;;6.60;5.70;;;;;;;;;;110123;269;42016;-41
2023/08/16 11:24:29;;;;;;;7.10;5.90;;;;;;;;;;110058;269;38437;-44
2023/08/16 11:27:05;;;;;;;6.80;6.10;;;;;;;;;;110142;269;39573;-45
2023/08/16 11:29:40;;;;;;;6.80;6.10;;;;;;;;;;110158;262;42659;-38
2023/08/16 11:32:35;;;;;;;7.30;6.10;;;;;;;;;;110046;268;174961;-43
2023/08/16 11:35:14;;;;;;;6.60;5.70;;;;;;;;;;110000;269;174884;-41
2023/08/16 11:37:52;;;;;;;7.30;6.00;;;;;;;;;;110185;265;39543;-44
2023/08/16 11:40:26;;;;;;;6.80;6.10;;;;;;;;;;110199;269;42923;-44
2023/08/16 11:43:07;;;;;;;6.60;5.70;;;;;;;;;;110192;265;42143;-43
2023/08/16 11:45:41;;;;;;;6.40;5.80;;;;;;;;;;110224;261;45884;-42
2023/08/16 11:48:17;;;;;;;6.90;5.70;;;;;;;;;;110181;265;39548;-41
2023/08/16 11:50:55;;;;;;;7.00;6.30;;;;;;;;;;110162;269;42905;-41
2023/08/16 11:53:38;;;;;;;6.80;6.10;;;;;;;;;;110115;261;43410;-42
2023/08/16 11:56:12;;;;;;;6.60;5.80;;;;;;;;;;110174;265;38413;-44
2023/08/16 11:58:48;;;;;;;6.30;5.70;;;;;;;;;;110223;269;39613;-43
2023/08/16 12:01:26;;;;;;;6.70;6.00;;;;;;;;;;110215;269;42776;-41
2023/08/16 12:04:02;;;;;;;6.20;5.60;;;;;;;;;;110106;269;43269;-42
2023/08/16 12:06:36;;;;;;;6.20;5.50;;;;;;;;;;110218;269;38492;-44
2023/08/16 12:09:19;;;;;;;6.50;5.90;;;;;;;;;;110188;269;41032;-42
2023/08/16 12:11:57;;;;;;;6.60;5.90;;;;;;;;;;110193;269;43845;-43
2023/08/16 12:14:30;;;;;;;6.80;6.00;;;;;;;;;;110131;269;42366;-43
2023/08/16 12:17:04;;;;;;;6.90;6.10;;;;;;;;;;110210;269;38533;-42
2023/08/16 12:19:37;;;;;;;6.50;5.80;;;;;;;;;;110175;269;39596;-41
2023/08/16 12:22:11;;;;;;;6.80;6.10;;;;;;;;;;110183;265;43956;-43
2023/08/16 12:24:46;;;;;;;6.60;5.90;;;;;;;;;;110176;269;41736;-45
2023/08/16 12:27:26;;;;;;;6.70;6.00;;;;;;;;;;110126;269;38634;-44
2023/08/16 12:30:00;;;;;;;6.50;5.80;;;;;;;;;;110064;269;39574;-42
2023/08/16 12:32:33;;;;;;;6.50;5.80;;;;;;;;;;110080;269;42493;-42
2023/08/16 12:35:09;;;;;;;6.70;6.00;;;;;;;;;;110093;269;41802;-44
2023/08/16 12:37:44;;;;;;;6.70;6.10;;;;;;;;;;110108;269;38429;-44
2023/08/16 12:40:20;;;;;;;7.40;5.90;;;;;;;;;;110129;262;39586;-43
2023/08/16 12:42:54;;;;;;;6.90;6.30;;;;;;;;;;110106;269;42910;-41
2023/08/16 12:45:27;;;;;;;7.30;6.30;;;;;;;;;;110048;269;44332;-42
2023/08/16 12:48:00;;;;;;;6.90;5.90;;;;;;;;;;110090;269;39787;-44
2023/08/16 12:50:37;;;;;;;6.40;5.80;;;;;;;;;;110094;269;39609;-45
2023/08/16 12:53:12;;;;;;;6.60;6.00;;;;;;;;;;110102;269;42504;-44
2023/08/16 12:56:04;;;;;;;7.20;6.50;;;;;;;;;;110015;261;42014;-37
2023/08/16 12:58:38;;;;;;;8.70;7.70;;;;;;;;;;110057;269;39004;-41
2023/08/16 13:01:33;;;;;;;9.10;7.40;;;;;;;;;;110057;269;39660;-38
2023/08/16 13:04:16;;;;;;;8.30;7.50;;;;;;;;;;110084;265;42835;-41
2023/08/16 13:06:53;;;;;;;8.90;8.00;;;;;;;;;;110153;261;42022;-41
2023/08/16 13:09:38;;;;;;;9.40;8.40;;;;;;;;;;110149;269;38823;-39
2023/08/16 13:12:14;;;;;;;8.70;7.80;;;;;;;;;;110169;269;39446;-40
2023/08/16 13:15:06;;;;;;;8.80;7.90;;;;;;;;;;110124;269;44005;-43
2023/08/16 13:17:57;;;;;;;9.20;8.30;;;;;;;;;;110227;269;41713;-39
2023/08/16 13:20:52;;;;;;;9.20;8.00;;;;;;;;;;110196;268;38462;-38
2023/08/16 13:23:32;;;;;;;8.70;7.80;;;;;;;;;;110207;269;39361;-44
2023/08/16 13:26:19;;;;;;;8.70;7.80;;;;;;;;;;110091;261;44106;-41
2023/08/16 13:29:13;;;;;;;9.20;8.30;;;;;;;;;;110209;269;41966;-38
2023/08/16 13:31:56;;;;;;;9.50;8.50;;;;;;;;;;110164;268;38606;-41
2023/08/16 13:34:37;;;;;;;9.00;8.10;;;;;;;;;;110158;269;39574;-43
2023/08/16 13:37:14;;;;;;;8.90;8.10;;;;;;;;;;110124;269;44111;-40
2023/08/16 13:39:53;;;;;;;9.10;8.10;;;;;;;;;;110147;269;41704;-44
2023/08/16 13:42:29;;;;;;;8.80;7.80;;;;;;;;;;110207;269;38828;-38
2023/08/16 13:45:10;;;;;;;8.70;7.80;;;;;;;;;;110166;269;39601;-40
2023/08/16 13:47:50;;;;;;;8.70;7.80;;;;;;;;;;110167;269;43395;-47
2023/08/16 13:50:25;;;;;;;9.60;8.10;;;;;;;;;;110177;269;41839;-39
2023/08/16 13:52:59;;;;;;;8.60;7.50;;;;;;;;;;110193;268;38871;-39
2023/08/16 13:55:39;;;;;;;9.00;7.80;;;;;;;;;;110146;269;39711;-38
2023/08/16 13:58:15;;;;;;;8.30;7.40;;;;;;;;;;110125;265;48453;-38
2023/08/16 14:00:52;;;;;;;8.40;7.40;;;;;;;;;;110081;269;175166;-44
2023/08/16 14:03:30;;;;;;;8.80;7.70;;;;;;;;;;110136;269;39076;-40
2023/08/16 14:06:08;;;;;;;8.20;7.50;;;;;;;;;;110141;269;39580;-42
2023/08/16 14:08:43;;;;;;;8.60;7.70;;;;;;;;;;110188;269;49019;-40
2023/08/16 14:11:19;;;;;;;7.90;7.10;;;;;;;;;;110200;269;41987;-42
2023/08/16 14:13:55;;;;;;;8.00;7.00;;;;;;;;;;110144;269;38853;-38
2023/08/16 14:16:29;;;;;;;7.60;6.80;;;;;;;;;;110069;269;39569;-38
2023/08/16 14:19:02;;;;;;;7.80;7.00;;;;;;;;;;110160;265;49034;-46
2023/08/16 14:21:37;;;;;;;7.70;6.90;;;;;;;;;;110113;269;43398;-46
2023/08/16 14:24:16;;;;;;;7.70;7.00;;;;;;;;;;110008;265;175172;-45
2023/08/16 14:26:49;;;;;;;8.40;7.30;;;;;;;;;;110140;269;39744;-46
2023/08/16 14:29:23;;;;;;;8.00;7.20;;;;;;;;;;110037;269;42745;-47
2023/08/16 14:31:57;;;;;;;7.80;7.00;;;;;;;;;;109993;269;42309;-46
2023/08/16 14:34:30;;;;;;;7.60;6.80;;;;;;;;;;110027;269;38834;-46
2023/08/16 14:37:03;;;;;;;7.70;6.80;;;;;;;;;;109972;269;39754;-45
2023/08/16 14:39:42;;;;;;;8.20;7.10;;;;;;;;;;109840;269;298697;-46
2023/08/16 14:42:19;;;;;;;7.40;6.10;;;;;;;;;;110106;269;42014;-46
2023/08/16 14:44:53;;;;;;;7.50;6.80;;;;;;;;;;110180;269;38722;-41
2023/08/16 14:47:26;;;;;;;7.70;6.90;;;;;;;;;;110175;269;40147;-41
2023/08/16 14:50:01;;;;;;;7.60;6.60;;;;;;;;;;110067;269;42442;-46
2023/08/16 14:52:37;;;;;;;7.50;6.50;;;;;;;;;;110129;269;42002;-48
2023/08/16 14:55:16;;;;;;;7.30;6.60;;;;;;;;;;110133;265;39940;-42
2023/08/16 14:58:00;;;;;;;7.50;6.70;;;;;;;;;;110223;265;41142;-48
2023/08/16 15:00:34;;;;;;;7.50;6.70;;;;;;;;;;110258;261;42619;-41
2023/08/16 15:03:10;;;;;;;7.10;6.30;;;;;;;;;;110171;261;43292;-43
2023/08/16 15:05:49;;;;;;;7.20;6.50;;;;;;;;;;110074;265;38428;-48
2023/08/16 15:08:22;;;;;;;7.40;6.70;;;;;;;;;;110100;261;40810;-43
2023/08/16 15:11:03;;;;;;;7.50;6.20;;;;;;;;;;110207;269;42719;-42
2023/08/16 15:13:40;;;;;;;7.50;6.60;;;;;;;;;;110133;261;42439;-45
2023/08/16 15:16:21;;;;;;;6.90;6.20;;;;;;;;;;110214;261;38635;-41
2023/08/16 15:18:58;;;;;;;7.20;6.50;;;;;;;;;;110271;268;41586;-45
2023/08/16 15:21:38;;;;;;;8.20;6.70;;;;;;;;;;110201;269;42724;-44
2023/08/16 15:24:12;;;;;;;7.10;6.40;;;;;;;;;;110202;260;41686;-41
2023/08/16 15:26:47;;;;;;;7.70;6.50;;;;;;;;;;110245;265;39880;-51
2023/08/16 15:29:22;;;;;;;7.90;6.60;;;;;;;;;;110114;264;39578;-41
2023/08/16 15:31:58;;;;;;;7.10;6.30;;;;;;;;;;110309;265;42608;-42
2023/08/16 15:34:31;;;;;;;7.30;6.50;;;;;;;;;;110265;261;42053;-39
2023/08/16 15:37:08;;;;;;;8.20;6.50;;;;;;;;;;110330;261;38634;-40